Terminal Aerodrome Forecast
Issued by NWS

Home | Current Version | Previous Version | Text Only | Print | Product List | Glossary On
Versions: 1 2 3 4 5 6 7 8 9 10 11 12 13 14 15 16 17
000
FTUS42 KILM 180500
TAFCRE
TAF
KCRE 180520Z 1806/1906 04009KT P6SM SCT015 BKN150
     FM181300 04012KT P6SM SCT035 BKN250
     FM181600 03012G17KT P6SM SCT050 BKN100
     FM181900 04010G16KT P6SM VCSH BKN045
     FM182000 04011G17KT 6SM -RA BKN040
     FM182100 04010KT 5SM -RA BKN020
     FM182300 04011KT 4SM RA BR BKN008=

USA.gov is the U.S. government's official web portal to all federal, state and local government web resources and services.